Aviation Digital Data Service (ADDS)

Output produced by METARs form (1848 UTC 23 April 2019)
found at http://www.aviationweather.gov/metar/data/
 
TAF RJGG 231705Z 2318/2500 10010KT 8000 FEW010 BKN020 
     TEMPO 2404/2409 4000 -SHRA BR 
     TEMPO 2409/2415 2000 SHRA BR FEW005 BKN008 
     TEMPO 2415/2418 4000 -SHRA BR FEW005 BKN008 
     TEMPO 2418/2421 4000 -SHRA BR 
     BECMG 2418/2421 24005KT